Main page
METAR-TAF:

METAR-TAF

Airports :

Nîmes, France

Nîmes–Alès–Camargue–Cévennes Airport

latitude: 43-45N, longitude: 004-25E, elevation: 94 m

Current weather observation

The report was made 39 minutes ago, at 01:30 UTC
Wind 2 kt from the East/Northeast
Temperature 14°C
Humidity 82%
Pressure 1018 hPa
Visibility 10 km or more
no clouds below 1500 m and no cumulonimbus

METAR: LFTW 290130Z AUTO 06002KT CAVOK 14/11 Q1018

Time: 04:09 (02:09 UTC)

Forecast

The report was made 12 hours and 9 minutes ago, at 14:00 UTC
Forecast valid from 28 at 15 UTC to 29 at 15 UTC
Wind 10 kt from the South
Visibility 10 km or more
no clouds below 1500 m and no cumulonimbus
Becoming
from 28 at 20 UTC to 28 at 22 UTC
Wind 3 kt from variable directions
Becoming
from 29 at 10 UTC to 29 at 12 UTC
Wind 10 kt from the South

TAF: LFTW 281400Z 2815/2915 17010KT CAVOK BECMG 2820/2822 VRB03KT BECMG 2910/2912 18010KT

Weather observations and forecasts of more than 4000 airports (METAR and TAF reports).

The available stations are represented by yellow and red dots on the map.

Hover mouse over dot to see the name of the station.

Then click to see weather observations and forecasts.

To change the map : click on the green buttons with a black cross to zoom in, on the green button with a dash to zoom out, or on the green arrows for adjacent maps.


METAR-TAF: